Главная страница
METAR-TAF:

METAR-TAF

Аэропорты :

Уфа, Россия

широта: 54-43-48N, долгота: 055-55-48E, высота над уровнем моря: 137 м

Текущие метеонаблюдения

Эта сводка был подготовлена 25 минут назад, в 06:00 UTC
Ветер 2 Узел от северно-северо-западный
Температура 2°C
Влажность 75%
Давление 1027 hPa
Видимость 10 км и более
Нет облачности ниже 1500 м, и нет кучево-дождевой облачности

METAR: UWUU 190600Z 33001MPS CAVOK 02/M02 Q1027 R14R/0///60 NOSIG RMK QFE760/1013

Время: 11:25 (06:25 UTC)

Прогноз

Эта сводка был подготовлена 1 час и 28 минут назад, в 04:57 UTC
Прогноз действительный с 19-го 06 UTC до 20-го 06 UTC
Ветер 2 Узел переменных направлений
Видимость 10 км и более
Отдельные облака на высоте 4000 фута
временами
С 19-го 18 UTC до 20-го 06 UTC
Видимость: 3100 м
Отдельные облака на высоте 1100 фута
дымка

TAF: UWUU 190457Z 1906/2006 VRB01MPS 9999 SCT040 TEMPO 1918/2006 3100 BR SCT011

Метеонаблюдения и прогнозы для более 4000 аэропортов (сводки METAR и TAF).

Имеющиеся станции представлены на карте желтыми и красными точками.

Чтобы увидеть название станции, наведите на нее мышь.

Затем щелкните, чтобы увидеть метеонаблюдения и метеопрогнозы.

Управление картой: чтобы увеличить масштаб, щелкните зеленые кнопки с черным крестиком; чтобы уменьшить масштаб, щелкните зеленую кнопку с тире; для просмотра соседних карт щелкайте зеленые стрелки.


METAR-TAF: